Morris, MN (56267)

8:32 PM CDT on September 01, 2015 (GMT -0500)
APRSWXNET | | Change Station
CLOSE
Current Station
Personal Weather Station
Location: Morris, MN
Elevation: 1174 ft
Nearby Weather Stations

Elev 1174 ft 45.59 °N, 95.90 °W | Updated 26 minutes ago

Clear
Clear
76 °F
Feels Like 77 °F
N
5
Wind Variable Wind from ESE
Gusts 0.0 mph

Today
High -- | Low -- °F
--% Chance of Precip.
Yesterday
High -- | Low -- °F
Precip. -- in
6:44 AM 8:01 PM
Waning Gibbous, 85% visible
Pressure 29.86 in
Visibility 7.0 miles
Clouds Clear
Heat Index 77 °F
Dew Point 71 °F
Humidity 85%
Rainfall in
Snow Depth Not available.
UV 0 out of 12
Pollen 9.80 out of 12
Air Quality Not available.
Flu Activity Not available.
METAR KMOX 020114Z AUTO 10005KT 7SM CLR 23/22 A2986 RMK AO2
Pressure 29.86 in
Visibility 7.0 miles
Clouds Clear
Heat Index 77 °F
Dew Point 71 °F
Humidity 85%
Rainfall in
Snow Depth Not available.
UV 0 out of 12
Pollen 9.80 out of 12
Air Quality Not available.
Flu Activity Not available.
METAR KMOX 020114Z AUTO 10005KT 7SM CLR 23/22 A2986 RMK AO2

10-Day Weather Forecast

×

Almanac

Astronomy

Sep. 01, 2015 Rise Set
Actual Time
Civil Twilight
Nautical Twilight
Astronomical Twilight
Moon
Length of Visible Light
Length of Day
Tomorrow will be .
, % of the Moon is Illuminated

Today's Extremes

State Highs State Lows

Community

WunderPhotos

Upload Photos

1,851,672 photos uploaded!

WunderBlogs® & News

Nearby

Air Quality

  Air Quality AQ Index Pollutant
Not available.

Snow Depth

Station Depth Elevation

Earthquake Activity

City Distance Mag. Time & Date
Minimum magnitude displayed is 2.5.

Coastal Water Temperatures

Place Temperature

Stations

Nearby Weather Stations

Station Location Temp. Windchill Dew Point Humidity Wind Precip. Elev Updated Type